sensor_id;sensor_type;location;lat;lon;timestamp;P1;durP1;ratioP1;P2;durP2;ratioP2
68714;SDS011;55692;53.356;10.030;2023-06-04T05:47:21;5.18;;;2.17;;
68714;SDS011;55692;53.356;10.030;2023-06-04T05:49:47;4.45;;;2.10;;
68714;SDS011;55692;53.356;10.030;2023-06-04T05:52:13;4.20;;;2.03;;
68714;SDS011;55692;53.356;10.030;2023-06-04T05:54:39;8.52;;;2.35;;
68714;SDS011;55692;53.356;10.030;2023-06-04T05:57:05;3.17;;;2.17;;
68714;SDS011;55692;53.356;10.030;2023-06-04T05:59:31;6.20;;;2.10;;
68714;SDS011;55692;53.356;10.030;2023-06-04T06:01:57;6.05;;;2.25;;
68714;SDS011;55692;53.356;10.030;2023-06-04T06:04:23;3.92;;;2.00;;
68714;SDS011;55692;53.356;10.030;2023-06-04T06:06:50;3.85;;;2.28;;
68714;SDS011;55692;53.356;10.030;2023-06-04T06:09:16;5.45;;;2.28;;
68714;SDS011;55692;53.356;10.030;2023-06-04T06:11:43;2.75;;;1.55;;
68714;SDS011;55692;53.356;10.030;2023-06-04T06:14:09;6.97;;;2.55;;
68714;SDS011;55692;53.356;10.030;2023-06-04T06:16:35;6.43;;;2.63;;
68714;SDS011;55692;53.356;10.030;2023-06-04T06:19:01;9.60;;;2.42;;
68714;SDS011;55692;53.356;10.030;2023-06-04T06:21:27;6.70;;;2.20;;
68714;SDS011;55692;53.356;10.030;2023-06-04T06:23:53;4.40;;;2.25;;
68714;SDS011;55692;53.356;10.030;2023-06-04T06:26:20;4.68;;;2.08;;
68714;SDS011;55692;53.356;10.030;2023-06-04T06:28:47;4.13;;;2.60;;
68714;SDS011;55692;53.356;10.030;2023-06-04T06:31:13;3.28;;;1.95;;
68714;SDS011;55692;53.356;10.030;2023-06-04T06:33:39;5.32;;;2.50;;
68714;SDS011;55692;53.356;10.030;2023-06-04T06:36:06;4.47;;;2.40;;
68714;SDS011;55692;53.356;10.030;2023-06-04T06:38:32;7.38;;;2.15;;
68714;SDS011;55692;53.356;10.030;2023-06-04T06:40:58;3.72;;;2.13;;
68714;SDS011;55692;53.356;10.030;2023-06-04T06:43:25;4.00;;;1.65;;
68714;SDS011;55692;53.356;10.030;2023-06-04T06:45:51;4.28;;;1.90;;
68714;SDS011;55692;53.356;10.030;2023-06-04T06:48:17;4.10;;;1.83;;
68714;SDS011;55692;53.356;10.030;2023-06-04T06:50:43;6.63;;;1.90;;
68714;SDS011;55692;53.356;10.030;2023-06-04T06:53:09;3.45;;;1.83;;
68714;SDS011;55692;53.356;10.030;2023-06-04T06:55:35;3.72;;;1.88;;
68714;SDS011;55692;53.356;10.030;2023-06-04T06:58:01;3.33;;;1.60;;
68714;SDS011;55692;53.356;10.030;2023-06-04T07:00:27;3.60;;;1.75;;
68714;SDS011;55692;53.356;10.030;2023-06-04T07:02:53;2.78;;;1.58;;
68714;SDS011;55692;53.356;10.030;2023-06-04T07:05:19;7.32;;;1.63;;
68714;SDS011;55692;53.356;10.030;2023-06-04T07:07:45;4.15;;;1.60;;
68714;SDS011;55692;53.356;10.030;2023-06-04T07:10:11;3.42;;;1.65;;
68714;SDS011;55692;53.356;10.030;2023-06-04T07:12:38;3.65;;;1.42;;
68714;SDS011;55692;53.356;10.030;2023-06-04T07:15:06;5.70;;;1.98;;
68714;SDS011;55692;53.356;10.030;2023-06-04T07:17:33;3.35;;;1.55;;
68714;SDS011;55692;53.356;10.030;2023-06-04T07:19:59;3.53;;;1.83;;
68714;SDS011;55692;53.356;10.030;2023-06-04T07:22:25;3.97;;;1.88;;
68714;SDS011;55692;53.356;10.030;2023-06-04T07:24:51;3.60;;;1.50;;
68714;SDS011;55692;53.356;10.030;2023-06-04T07:27:18;8.50;;;1.40;;
68714;SDS011;55692;53.356;10.030;2023-06-04T07:29:44;3.95;;;1.30;;
68714;SDS011;55692;53.356;10.030;2023-06-04T07:32:10;3.30;;;1.27;;
68714;SDS011;55692;53.356;10.030;2023-06-04T07:34:39;3.47;;;1.50;;
68714;SDS011;55692;53.356;10.030;2023-06-04T07:37:05;4.28;;;1.20;;
68714;SDS011;55692;53.356;10.030;2023-06-04T07:39:32;4.05;;;1.30;;
68714;SDS011;55692;53.356;10.030;2023-06-04T07:41:58;3.90;;;1.48;;
68714;SDS011;55692;53.356;10.030;2023-06-04T07:44:24;3.47;;;1.58;;
68714;SDS011;55692;53.356;10.030;2023-06-04T07:46:50;2.67;;;1.35;;
68714;SDS011;55692;53.356;10.030;2023-06-04T07:49:16;4.97;;;1.20;;
68714;SDS011;55692;53.356;10.030;2023-06-04T07:51:42;2.47;;;1.10;;
68714;SDS011;55692;53.356;10.030;2023-06-04T07:54:08;4.82;;;1.50;;
68714;SDS011;55692;53.356;10.030;2023-06-04T07:56:35;2.42;;;1.27;;
68714;SDS011;55692;53.356;10.030;2023-06-04T07:59:01;4.20;;;1.10;;
68714;SDS011;55692;53.356;10.030;2023-06-04T08:01:27;4.15;;;1.30;;
68714;SDS011;55692;53.356;10.030;2023-06-04T08:03:54;2.83;;;1.58;;
68714;SDS011;55692;53.356;10.030;2023-06-04T08:06:20;3.17;;;1.00;;
68714;SDS011;55692;53.356;10.030;2023-06-04T08:08:49;2.30;;;1.20;;
68714;SDS011;55692;53.356;10.030;2023-06-04T08:11:15;4.78;;;1.33;;
68714;SDS011;55692;53.356;10.030;2023-06-04T08:13:41;3.55;;;1.48;;
68714;SDS011;55692;53.356;10.030;2023-06-04T08:16:08;2.38;;;1.10;;
68714;SDS011;55692;53.356;10.030;2023-06-04T08:18:39;3.42;;;1.33;;
68714;SDS011;55692;53.356;10.030;2023-06-04T08:21:08;2.83;;;1.40;;
68714;SDS011;55692;53.356;10.030;2023-06-04T08:23:35;5.10;;;1.38;;
68714;SDS011;55692;53.356;10.030;2023-06-04T08:26:01;5.45;;;1.10;;
68714;SDS011;55692;53.356;10.030;2023-06-04T08:28:27;3.88;;;1.38;;
68714;SDS011;55692;53.356;10.030;2023-06-04T08:30:53;2.05;;;0.85;;
68714;SDS011;55692;53.356;10.030;2023-06-04T08:33:19;3.67;;;1.10;;
68714;SDS011;55692;53.356;10.030;2023-06-04T08:35:45;2.72;;;1.00;;
68714;SDS011;55692;53.356;10.030;2023-06-04T08:38:11;3.33;;;1.30;;
68714;SDS011;55692;53.356;10.030;2023-06-04T08:40:37;3.55;;;1.25;;
68714;SDS011;55692;53.356;10.030;2023-06-04T08:43:03;2.05;;;0.98;;
68714;SDS011;55692;53.356;10.030;2023-06-04T08:45:31;1.20;;;0.82;;
68714;SDS011;55692;53.356;10.030;2023-06-04T08:47:58;2.35;;;0.90;;
68714;SDS011;55692;53.356;10.030;2023-06-04T08:50:24;3.97;;;1.02;;
68714;SDS011;55692;53.356;10.030;2023-06-04T08:52:54;2.20;;;1.10;;
68714;SDS011;55692;53.356;10.030;2023-06-04T08:55:20;2.20;;;1.10;;
68714;SDS011;55692;53.356;10.030;2023-06-04T08:57:47;5.88;;;1.17;;
68714;SDS011;55692;53.356;10.030;2023-06-04T09:00:16;3.53;;;1.38;;
68714;SDS011;55692;53.356;10.030;2023-06-04T09:02:43;2.42;;;1.25;;
68714;SDS011;55692;53.356;10.030;2023-06-04T09:05:09;2.10;;;1.10;;
68714;SDS011;55692;53.356;10.030;2023-06-04T09:07:36;1.48;;;1.02;;
68714;SDS011;55692;53.356;10.030;2023-06-04T09:10:02;4.53;;;1.48;;
68714;SDS011;55692;53.356;10.030;2023-06-04T09:12:30;3.38;;;1.73;;
68714;SDS011;55692;53.356;10.030;2023-06-04T09:14:56;3.20;;;1.30;;
68714;SDS011;55692;53.356;10.030;2023-06-04T09:17:23;2.83;;;0.90;;
68714;SDS011;55692;53.356;10.030;2023-06-04T09:19:49;2.92;;;1.20;;
68714;SDS011;55692;53.356;10.030;2023-06-04T09:22:15;5.80;;;1.38;;
68714;SDS011;55692;53.356;10.030;2023-06-04T09:24:45;5.85;;;1.40;;
68714;SDS011;55692;53.356;10.030;2023-06-04T09:27:18;4.90;;;1.70;;
68714;SDS011;55692;53.356;10.030;2023-06-04T09:32:25;2.65;;;1.00;;
68714;SDS011;55692;53.356;10.030;2023-06-04T09:35:13;3.28;;;1.10;;
68714;SDS011;55692;53.356;10.030;2023-06-04T09:37:40;1.70;;;0.80;;
68714;SDS011;55692;53.356;10.030;2023-06-04T09:40:06;2.10;;;1.08;;
68714;SDS011;55692;53.356;10.030;2023-06-04T09:42:46;6.45;;;1.30;;
68714;SDS011;55692;53.356;10.030;2023-06-04T09:45:25;1.48;;;0.88;;
68714;SDS011;55692;53.356;10.030;2023-06-04T09:47:51;3.22;;;1.10;;
68714;SDS011;55692;53.356;10.030;2023-06-04T09:50:18;3.60;;;0.93;;
68714;SDS011;55692;53.356;10.030;2023-06-04T09:52:50;2.35;;;0.85;;
68714;SDS011;55692;53.356;10.030;2023-06-04T09:55:17;1.90;;;1.20;;
68714;SDS011;55692;53.356;10.030;2023-06-04T09:57:48;1.08;;;0.80;;
68714;SDS011;55692;53.356;10.030;2023-06-04T10:00:21;3.45;;;1.08;;
68714;SDS011;55692;53.356;10.030;2023-06-04T10:02:48;3.15;;;1.48;;
68714;SDS011;55692;53.356;10.030;2023-06-04T10:05:14;4.85;;;1.30;;
68714;SDS011;55692;53.356;10.030;2023-06-04T10:07:44;3.03;;;1.35;;
68714;SDS011;55692;53.356;10.030;2023-06-04T10:10:16;2.33;;;1.10;;
68714;SDS011;55692;53.356;10.030;2023-06-04T10:12:43;2.85;;;0.90;;
68714;SDS011;55692;53.356;10.030;2023-06-04T10:15:11;3.75;;;1.10;;
68714;SDS011;55692;53.356;10.030;2023-06-04T10:17:38;4.10;;;1.23;;
68714;SDS011;55692;53.356;10.030;2023-06-04T10:20:04;4.63;;;1.23;;
68714;SDS011;55692;53.356;10.030;2023-06-04T10:22:37;4.82;;;1.00;;
68714;SDS011;55692;53.356;10.030;2023-06-04T10:25:04;3.80;;;1.20;;
68714;SDS011;55692;53.356;10.030;2023-06-04T10:27:30;3.47;;;1.65;;
68714;SDS011;55692;53.356;10.030;2023-06-04T10:29:57;7.22;;;1.20;;
68714;SDS011;55692;53.356;10.030;2023-06-04T10:32:25;2.55;;;1.13;;
68714;SDS011;55692;53.356;10.030;2023-06-04T10:34:52;5.15;;;1.90;;
68714;SDS011;55692;53.356;10.030;2023-06-04T10:37:21;2.85;;;1.10;;
68714;SDS011;55692;53.356;10.030;2023-06-04T10:39:51;3.78;;;1.00;;
68714;SDS011;55692;53.356;10.030;2023-06-04T10:42:18;4.15;;;0.90;;
68714;SDS011;55692;53.356;10.030;2023-06-04T10:44:46;2.72;;;1.27;;
68714;SDS011;55692;53.356;10.030;2023-06-04T10:47:25;2.67;;;0.95;;
68714;SDS011;55692;53.356;10.030;2023-06-04T10:49:52;6.55;;;1.35;;
68714;SDS011;55692;53.356;10.030;2023-06-04T10:52:19;2.20;;;0.95;;
68714;SDS011;55692;53.356;10.030;2023-06-04T10:54:45;3.15;;;1.23;;
68714;SDS011;55692;53.356;10.030;2023-06-04T10:57:17;2.97;;;1.10;;
68714;SDS011;55692;53.356;10.030;2023-06-04T10:59:55;3.92;;;1.30;;
68714;SDS011;55692;53.356;10.030;2023-06-04T11:02:22;2.97;;;1.33;;
68714;SDS011;55692;53.356;10.030;2023-06-04T11:05:04;4.18;;;1.48;;
68714;SDS011;55692;53.356;10.030;2023-06-04T11:07:46;4.38;;;1.35;;
68714;SDS011;55692;53.356;10.030;2023-06-04T11:10:13;3.95;;;1.00;;
68714;SDS011;55692;53.356;10.030;2023-06-04T11:12:46;2.65;;;1.20;;
68714;SDS011;55692;53.356;10.030;2023-06-04T11:15:12;3.75;;;1.08;;
68714;SDS011;55692;53.356;10.030;2023-06-04T11:17:48;4.28;;;1.30;;
68714;SDS011;55692;53.356;10.030;2023-06-04T11:20:18;3.42;;;1.23;;
68714;SDS011;55692;53.356;10.030;2023-06-04T11:22:56;1.85;;;1.13;;
68714;SDS011;55692;53.356;10.030;2023-06-04T11:25:23;2.67;;;0.90;;
68714;SDS011;55692;53.356;10.030;2023-06-04T11:27:51;1.70;;;0.80;;
68714;SDS011;55692;53.356;10.030;2023-06-04T11:30:17;3.53;;;1.38;;
68714;SDS011;55692;53.356;10.030;2023-06-04T11:32:43;2.00;;;1.08;;
68714;SDS011;55692;53.356;10.030;2023-06-04T11:35:09;2.38;;;1.08;;
68714;SDS011;55692;53.356;10.030;2023-06-04T11:37:38;2.78;;;0.70;;
68714;SDS011;55692;53.356;10.030;2023-06-04T11:40:17;3.30;;;1.08;;
68714;SDS011;55692;53.356;10.030;2023-06-04T11:42:44;2.70;;;1.08;;
68714;SDS011;55692;53.356;10.030;2023-06-04T11:45:11;7.07;;;1.83;;
68714;SDS011;55692;53.356;10.030;2023-06-04T11:47:38;8.55;;;1.50;;
68714;SDS011;55692;53.356;10.030;2023-06-04T11:50:04;4.20;;;1.30;;
68714;SDS011;55692;53.356;10.030;2023-06-04T11:52:30;3.42;;;1.20;;
68714;SDS011;55692;53.356;10.030;2023-06-04T11:54:57;3.03;;;1.40;;
68714;SDS011;55692;53.356;10.030;2023-06-04T11:57:23;3.92;;;1.02;;
68714;SDS011;55692;53.356;10.030;2023-06-04T11:59:49;2.47;;;1.08;;
68714;SDS011;55692;53.356;10.030;2023-06-04T12:02:15;3.10;;;1.25;;
68714;SDS011;55692;53.356;10.030;2023-06-04T12:04:41;2.17;;;0.90;;
68714;SDS011;55692;53.356;10.030;2023-06-04T12:07:07;2.47;;;1.15;;
68714;SDS011;55692;53.356;10.030;2023-06-04T12:09:34;2.13;;;1.00;;
68714;SDS011;55692;53.356;10.030;2023-06-04T12:12:05;3.72;;;1.17;;
68714;SDS011;55692;53.356;10.030;2023-06-04T12:14:31;2.17;;;0.80;;
68714;SDS011;55692;53.356;10.030;2023-06-04T12:16:58;2.97;;;1.55;;
68714;SDS011;55692;53.356;10.030;2023-06-04T12:19:25;3.08;;;1.10;;
68714;SDS011;55692;53.356;10.030;2023-06-04T12:24:27;2.60;;;1.10;;
68714;SDS011;55692;53.356;10.030;2023-06-04T12:27:00;2.53;;;1.13;;
68714;SDS011;55692;53.356;10.030;2023-06-04T12:29:27;2.75;;;1.20;;
68714;SDS011;55692;53.356;10.030;2023-06-04T12:32:01;4.50;;;1.08;;
68714;SDS011;55692;53.356;10.030;2023-06-04T12:34:28;3.67;;;1.17;;
68714;SDS011;55692;53.356;10.030;2023-06-04T12:36:54;2.78;;;1.10;;
68714;SDS011;55692;53.356;10.030;2023-06-04T12:39:20;4.68;;;1.20;;
68714;SDS011;55692;53.356;10.030;2023-06-04T12:41:46;1.40;;;0.80;;
68714;SDS011;55692;53.356;10.030;2023-06-04T12:44:12;3.33;;;0.82;;
68714;SDS011;55692;53.356;10.030;2023-06-04T12:46:38;2.92;;;1.00;;
68714;SDS011;55692;53.356;10.030;2023-06-04T12:49:05;1.77;;;0.90;;
68714;SDS011;55692;53.356;10.030;2023-06-04T12:51:31;5.18;;;1.35;;
68714;SDS011;55692;53.356;10.030;2023-06-04T12:53:57;1.55;;;0.90;;
68714;SDS011;55692;53.356;10.030;2023-06-04T12:56:23;2.53;;;0.98;;
68714;SDS011;55692;53.356;10.030;2023-06-04T12:58:50;2.75;;;0.77;;
68714;SDS011;55692;53.356;10.030;2023-06-04T13:01:16;3.45;;;1.00;;
68714;SDS011;55692;53.356;10.030;2023-06-04T13:03:42;2.22;;;1.00;;
68714;SDS011;55692;53.356;10.030;2023-06-04T13:06:08;2.95;;;1.58;;
68714;SDS011;55692;53.356;10.030;2023-06-04T13:08:34;2.22;;;1.20;;
68714;SDS011;55692;53.356;10.030;2023-06-04T13:11:00;2.33;;;0.88;;
68714;SDS011;55692;53.356;10.030;2023-06-04T13:13:27;3.45;;;1.13;;
68714;SDS011;55692;53.356;10.030;2023-06-04T13:15:53;4.32;;;1.08;;
68714;SDS011;55692;53.356;10.030;2023-06-04T13:18:19;4.07;;;1.52;;
68714;SDS011;55692;53.356;10.030;2023-06-04T13:20:45;2.63;;;1.00;;
68714;SDS011;55692;53.356;10.030;2023-06-04T13:23:11;3.65;;;1.00;;
68714;SDS011;55692;53.356;10.030;2023-06-04T13:25:37;3.28;;;1.02;;
68714;SDS011;55692;53.356;10.030;2023-06-04T13:28:04;3.70;;;1.30;;
68714;SDS011;55692;53.356;10.030;2023-06-04T13:30:30;2.33;;;1.00;;
68714;SDS011;55692;53.356;10.030;2023-06-04T13:32:56;5.80;;;1.00;;
68714;SDS011;55692;53.356;10.030;2023-06-04T13:35:23;3.65;;;1.20;;
68714;SDS011;55692;53.356;10.030;2023-06-04T13:37:49;2.55;;;1.00;;
68714;SDS011;55692;53.356;10.030;2023-06-04T13:40:15;3.50;;;1.30;;
68714;SDS011;55692;53.356;10.030;2023-06-04T13:42:41;3.63;;;1.10;;
68714;SDS011;55692;53.356;10.030;2023-06-04T13:45:08;5.15;;;1.00;;
68714;SDS011;55692;53.356;10.030;2023-06-04T13:47:34;2.35;;;1.10;;
68714;SDS011;55692;53.356;10.030;2023-06-04T13:50:00;0.98;;;0.80;;
68714;SDS011;55692;53.356;10.030;2023-06-04T13:52:26;9.25;;;1.80;;
68714;SDS011;55692;53.356;10.030;2023-06-04T13:54:55;5.05;;;1.30;;
68714;SDS011;55692;53.356;10.030;2023-06-04T13:57:24;3.90;;;1.00;;
68714;SDS011;55692;53.356;10.030;2023-06-04T13:59:50;3.58;;;1.20;;
68714;SDS011;55692;53.356;10.030;2023-06-04T14:02:17;1.85;;;1.17;;
68714;SDS011;55692;53.356;10.030;2023-06-04T14:04:43;1.40;;;1.13;;
68714;SDS011;55692;53.356;10.030;2023-06-04T14:07:09;2.20;;;0.95;;
68714;SDS011;55692;53.356;10.030;2023-06-04T14:09:35;2.83;;;0.98;;
68714;SDS011;55692;53.356;10.030;2023-06-04T14:12:04;4.57;;;1.35;;
68714;SDS011;55692;53.356;10.030;2023-06-04T14:14:30;3.47;;;1.20;;
68714;SDS011;55692;53.356;10.030;2023-06-04T14:17:01;1.80;;;1.00;;
68714;SDS011;55692;53.356;10.030;2023-06-04T14:19:27;6.47;;;1.20;;
68714;SDS011;55692;53.356;10.030;2023-06-04T14:21:53;2.83;;;1.10;;
68714;SDS011;55692;53.356;10.030;2023-06-04T14:24:19;3.70;;;1.10;;
68714;SDS011;55692;53.356;10.030;2023-06-04T14:26:45;3.22;;;1.20;;
68714;SDS011;55692;53.356;10.030;2023-06-04T14:29:12;2.53;;;1.27;;
68714;SDS011;55692;53.356;10.030;2023-06-04T14:31:38;3.30;;;1.05;;
68714;SDS011;55692;53.356;10.030;2023-06-04T14:34:04;1.60;;;0.80;;
68714;SDS011;55692;53.356;10.030;2023-06-04T14:36:32;2.97;;;1.70;;
68714;SDS011;55692;53.356;10.030;2023-06-04T14:38:58;2.55;;;1.25;;
68714;SDS011;55692;53.356;10.030;2023-06-04T14:41:24;3.15;;;1.00;;
68714;SDS011;55692;53.356;10.030;2023-06-04T14:43:51;3.10;;;1.13;;
68714;SDS011;55692;53.356;10.030;2023-06-04T14:46:18;1.63;;;1.00;;
68714;SDS011;55692;53.356;10.030;2023-06-04T14:48:44;4.32;;;1.52;;
68714;SDS011;55692;53.356;10.030;2023-06-04T14:51:10;4.00;;;1.15;;
68714;SDS011;55692;53.356;10.030;2023-06-04T14:53:36;2.15;;;1.10;;
68714;SDS011;55692;53.356;10.030;2023-06-04T14:56:04;2.53;;;1.25;;
68714;SDS011;55692;53.356;10.030;2023-06-04T14:58:30;1.85;;;0.90;;
68714;SDS011;55692;53.356;10.030;2023-06-04T15:00:56;5.13;;;1.23;;
68714;SDS011;55692;53.356;10.030;2023-06-04T15:03:23;2.90;;;0.80;;
68714;SDS011;55692;53.356;10.030;2023-06-04T15:05:50;1.50;;;0.82;;
68714;SDS011;55692;53.356;10.030;2023-06-04T15:08:16;4.38;;;1.17;;
68714;SDS011;55692;53.356;10.030;2023-06-04T15:10:42;2.97;;;1.27;;
68714;SDS011;55692;53.356;10.030;2023-06-04T15:13:08;4.25;;;1.30;;
68714;SDS011;55692;53.356;10.030;2023-06-04T15:15:34;4.30;;;1.20;;
68714;SDS011;55692;53.356;10.030;2023-06-04T15:18:00;1.85;;;0.88;;
68714;SDS011;55692;53.356;10.030;2023-06-04T15:20:26;2.13;;;1.17;;
68714;SDS011;55692;53.356;10.030;2023-06-04T15:22:53;2.35;;;1.00;;
68714;SDS011;55692;53.356;10.030;2023-06-04T15:25:19;2.08;;;1.30;;
68714;SDS011;55692;53.356;10.030;2023-06-04T15:27:46;2.20;;;1.10;;
68714;SDS011;55692;53.356;10.030;2023-06-04T15:30:12;2.20;;;1.10;;
68714;SDS011;55692;53.356;10.030;2023-06-04T15:32:38;2.35;;;1.10;;
68714;SDS011;55692;53.356;10.030;2023-06-04T15:35:06;1.75;;;1.00;;
68714;SDS011;55692;53.356;10.030;2023-06-04T15:37:32;2.75;;;1.20;;
68714;SDS011;55692;53.356;10.030;2023-06-04T15:39:58;3.83;;;1.20;;
68714;SDS011;55692;53.356;10.030;2023-06-04T15:42:26;3.65;;;1.35;;
68714;SDS011;55692;53.356;10.030;2023-06-04T15:44:52;3.35;;;1.00;;
68714;SDS011;55692;53.356;10.030;2023-06-04T15:47:18;3.33;;;1.00;;
68714;SDS011;55692;53.356;10.030;2023-06-04T15:49:44;3.20;;;1.13;;
68714;SDS011;55692;53.356;10.030;2023-06-04T15:52:10;6.93;;;2.33;;
68714;SDS011;55692;53.356;10.030;2023-06-04T15:54:36;2.22;;;1.17;;
68714;SDS011;55692;53.356;10.030;2023-06-04T15:57:02;1.88;;;1.10;;
68714;SDS011;55692;53.356;10.030;2023-06-04T15:59:28;4.45;;;3.00;;
68714;SDS011;55692;53.356;10.030;2023-06-04T16:01:54;3.10;;;1.30;;
68714;SDS011;55692;53.356;10.030;2023-06-04T16:04:20;2.55;;;1.13;;
68714;SDS011;55692;53.356;10.030;2023-06-04T16:06:46;1.65;;;0.80;;
68714;SDS011;55692;53.356;10.030;2023-06-04T16:09:12;3.33;;;1.23;;
68714;SDS011;55692;53.356;10.030;2023-06-04T16:11:38;3.72;;;0.90;;
68714;SDS011;55692;53.356;10.030;2023-06-04T16:14:04;2.85;;;1.38;;
68714;SDS011;55692;53.356;10.030;2023-06-04T16:16:31;2.15;;;1.40;;
68714;SDS011;55692;53.356;10.030;2023-06-04T16:18:57;1.70;;;0.98;;
68714;SDS011;55692;53.356;10.030;2023-06-04T16:21:27;4.38;;;1.10;;
68714;SDS011;55692;53.356;10.030;2023-06-04T16:23:53;2.85;;;1.00;;
68714;SDS011;55692;53.356;10.030;2023-06-04T16:26:19;1.67;;;0.90;;
68714;SDS011;55692;53.356;10.030;2023-06-04T16:28:45;2.13;;;1.10;;
68714;SDS011;55692;53.356;10.030;2023-06-04T16:31:11;2.80;;;1.00;;
68714;SDS011;55692;53.356;10.030;2023-06-04T16:33:37;3.38;;;1.25;;
68714;SDS011;55692;53.356;10.030;2023-06-04T16:36:03;2.05;;;1.02;;
68714;SDS011;55692;53.356;10.030;2023-06-04T16:38:29;3.17;;;1.23;;
68714;SDS011;55692;53.356;10.030;2023-06-04T16:40:55;6.10;;;1.40;;
68714;SDS011;55692;53.356;10.030;2023-06-04T16:43:21;1.80;;;1.00;;
68714;SDS011;55692;53.356;10.030;2023-06-04T16:45:47;5.32;;;1.10;;
68714;SDS011;55692;53.356;10.030;2023-06-04T16:48:13;4.88;;;1.00;;
68714;SDS011;55692;53.356;10.030;2023-06-04T16:50:39;2.45;;;1.10;;
68714;SDS011;55692;53.356;10.030;2023-06-04T16:53:05;3.83;;;1.23;;
68714;SDS011;55692;53.356;10.030;2023-06-04T16:55:32;3.17;;;1.10;;
68714;SDS011;55692;53.356;10.030;2023-06-04T16:57:59;4.43;;;1.83;;
68714;SDS011;55692;53.356;10.030;2023-06-04T17:00:25;4.30;;;1.38;;
68714;SDS011;55692;53.356;10.030;2023-06-04T17:02:51;4.20;;;1.27;;
68714;SDS011;55692;53.356;10.030;2023-06-04T17:05:17;2.40;;;1.20;;
68714;SDS011;55692;53.356;10.030;2023-06-04T17:07:44;1.90;;;0.98;;
68714;SDS011;55692;53.356;10.030;2023-06-04T17:10:10;2.67;;;1.20;;
68714;SDS011;55692;53.356;10.030;2023-06-04T17:12:36;10.70;;;1.20;;
68714;SDS011;55692;53.356;10.030;2023-06-04T17:15:03;2.10;;;1.08;;
68714;SDS011;55692;53.356;10.030;2023-06-04T17:17:29;2.08;;;1.23;;
68714;SDS011;55692;53.356;10.030;2023-06-04T17:19:55;3.13;;;1.33;;
68714;SDS011;55692;53.356;10.030;2023-06-04T17:22:21;3.25;;;1.20;;
68714;SDS011;55692;53.356;10.030;2023-06-04T17:24:48;2.63;;;0.95;;
68714;SDS011;55692;53.356;10.030;2023-06-04T17:27:14;2.70;;;1.15;;
68714;SDS011;55692;53.356;10.030;2023-06-04T17:29:40;2.17;;;1.20;;
68714;SDS011;55692;53.356;10.030;2023-06-04T17:32:10;3.38;;;1.15;;
68714;SDS011;55692;53.356;10.030;2023-06-04T17:34:36;2.50;;;1.33;;
68714;SDS011;55692;53.356;10.030;2023-06-04T17:37:02;2.30;;;1.00;;
68714;SDS011;55692;53.356;10.030;2023-06-04T17:39:29;3.78;;;1.38;;
68714;SDS011;55692;53.356;10.030;2023-06-04T17:41:57;2.92;;;1.23;;
68714;SDS011;55692;53.356;10.030;2023-06-04T17:44:23;2.83;;;1.33;;
68714;SDS011;55692;53.356;10.030;2023-06-04T17:46:49;1.80;;;1.13;;
68714;SDS011;55692;53.356;10.030;2023-06-04T17:49:15;4.32;;;1.30;;
68714;SDS011;55692;53.356;10.030;2023-06-04T17:51:41;2.60;;;1.10;;
68714;SDS011;55692;53.356;10.030;2023-06-04T17:54:07;4.45;;;1.30;;
68714;SDS011;55692;53.356;10.030;2023-06-04T17:56:34;2.78;;;1.55;;
68714;SDS011;55692;53.356;10.030;2023-06-04T17:59:02;4.30;;;1.17;;
68714;SDS011;55692;53.356;10.030;2023-06-04T18:01:28;4.13;;;1.65;;
68714;SDS011;55692;53.356;10.030;2023-06-04T18:03:54;3.42;;;1.15;;
68714;SDS011;55692;53.356;10.030;2023-06-04T18:06:20;1.30;;;1.00;;
68714;SDS011;55692;53.356;10.030;2023-06-04T18:08:46;3.47;;;1.05;;
68714;SDS011;55692;53.356;10.030;2023-06-04T18:11:12;3.58;;;1.20;;
68714;SDS011;55692;53.356;10.030;2023-06-04T18:13:38;2.72;;;1.10;;
68714;SDS011;55692;53.356;10.030;2023-06-04T18:16:04;5.57;;;1.40;;
68714;SDS011;55692;53.356;10.030;2023-06-04T18:18:30;4.07;;;1.08;;
68714;SDS011;55692;53.356;10.030;2023-06-04T18:20:56;3.17;;;1.30;;
68714;SDS011;55692;53.356;10.030;2023-06-04T18:23:22;4.63;;;1.35;;
68714;SDS011;55692;53.356;10.030;2023-06-04T18:25:48;2.78;;;1.65;;
68714;SDS011;55692;53.356;10.030;2023-06-04T18:28:14;2.42;;;1.30;;
68714;SDS011;55692;53.356;10.030;2023-06-04T18:30:40;3.65;;;1.23;;
68714;SDS011;55692;53.356;10.030;2023-06-04T18:33:07;3.65;;;1.40;;
68714;SDS011;55692;53.356;10.030;2023-06-04T18:35:33;6.28;;;1.30;;
68714;SDS011;55692;53.356;10.030;2023-06-04T18:37:59;2.83;;;1.30;;
68714;SDS011;55692;53.356;10.030;2023-06-04T18:40:25;2.47;;;1.38;;
68714;SDS011;55692;53.356;10.030;2023-06-04T18:42:51;2.35;;;1.30;;
68714;SDS011;55692;53.356;10.030;2023-06-04T18:45:17;3.20;;;1.20;;
68714;SDS011;55692;53.356;10.030;2023-06-04T18:47:43;2.13;;;1.35;;
68714;SDS011;55692;53.356;10.030;2023-06-04T18:50:09;3.55;;;1.42;;
68714;SDS011;55692;53.356;10.030;2023-06-04T18:52:35;3.03;;;1.30;;
68714;SDS011;55692;53.356;10.030;2023-06-04T18:55:04;3.17;;;1.27;;
68714;SDS011;55692;53.356;10.030;2023-06-04T18:57:30;3.17;;;1.25;;
68714;SDS011;55692;53.356;10.030;2023-06-04T18:59:56;4.35;;;1.35;;
68714;SDS011;55692;53.356;10.030;2023-06-04T19:02:22;2.30;;;1.15;;
68714;SDS011;55692;53.356;10.030;2023-06-04T19:04:48;4.10;;;1.30;;
68714;SDS011;55692;53.356;10.030;2023-06-04T19:07:15;4.53;;;1.42;;
68714;SDS011;55692;53.356;10.030;2023-06-04T19:09:41;2.58;;;1.20;;
68714;SDS011;55692;53.356;10.030;2023-06-04T19:12:07;7.55;;;1.25;;
68714;SDS011;55692;53.356;10.030;2023-06-04T19:14:33;4.60;;;1.40;;
68714;SDS011;55692;53.356;10.030;2023-06-04T19:17:02;2.65;;;1.30;;
68714;SDS011;55692;53.356;10.030;2023-06-04T19:19:28;5.97;;;1.40;;
68714;SDS011;55692;53.356;10.030;2023-06-04T19:21:54;2.83;;;1.42;;
68714;SDS011;55692;53.356;10.030;2023-06-04T19:24:23;9.27;;;1.58;;
68714;SDS011;55692;53.356;10.030;2023-06-04T19:26:49;2.50;;;1.48;;
68714;SDS011;55692;53.356;10.030;2023-06-04T19:29:16;3.08;;;1.45;;
68714;SDS011;55692;53.356;10.030;2023-06-04T19:31:42;1.95;;;1.40;;
68714;SDS011;55692;53.356;10.030;2023-06-04T19:34:08;3.20;;;1.27;;
68714;SDS011;55692;53.356;10.030;2023-06-04T19:36:34;4.30;;;1.52;;
68714;SDS011;55692;53.356;10.030;2023-06-04T19:39:00;2.75;;;1.38;;
68714;SDS011;55692;53.356;10.030;2023-06-04T19:41:27;4.50;;;1.23;;
68714;SDS011;55692;53.356;10.030;2023-06-04T19:43:53;2.08;;;1.20;;
68714;SDS011;55692;53.356;10.030;2023-06-04T19:46:19;2.50;;;1.30;;
68714;SDS011;55692;53.356;10.030;2023-06-04T19:48:45;4.00;;;1.70;;
68714;SDS011;55692;53.356;10.030;2023-06-04T19:51:13;5.63;;;1.35;;
